Time;durP1;ratioP1;P1;durP2;ratioP2;P2;SDS_P1;SDS_P2;PMS_P1;PMS_P2;Temp;Humidity;BMP_temperature;BMP_pressure;BME280_temperature;BME280_humidity;BME280_pressure;Samples;Min_cycle;Max_cycle;Signal;HPM_P1;HPM_P2
2022/05/13 00:01:16;;;;;;;19.45;3.78;;;;;;;12.55;100.00;101706.97;5064385;28;20063;-29
2022/05/13 00:03:44;;;;;;;24.38;3.97;;;;;;;12.55;100.00;101703.34;5061872;28;20076;-29
2022/05/13 00:06:13;;;;;;;22.60;3.45;;;;;;;12.55;100.00;101706.13;5065248;28;20037;-29
2022/05/13 00:08:42;;;;;;;23.30;3.75;;;;;;;12.54;100.00;101696.91;5060658;28;20052;-29
2022/05/13 00:11:10;;;;;;;28.17;3.85;;;;;;;12.55;100.00;101692.13;5065159;28;20053;-29
2022/05/13 00:13:38;;;;;;;26.40;4.28;;;;;;;12.54;100.00;101688.50;5061685;28;20033;-30
2022/05/13 00:16:07;;;;;;;24.95;3.53;;;;;;;12.54;100.00;101699.69;5064906;28;20045;-29
2022/05/13 00:18:36;;;;;;;22.42;3.88;;;;;;;12.54;100.00;101685.69;5049238;28;20053;-28
2022/05/13 00:21:04;;;;;;;23.23;4.03;;;;;;;12.55;100.00;101686.53;5058579;28;20047;-28
2022/05/13 00:23:32;;;;;;;19.73;3.47;;;;;;;12.52;100.00;101676.75;5060354;28;20044;-28
2022/05/13 00:26:01;;;;;;;22.40;3.38;;;;;;;12.52;100.00;101685.16;5058765;28;20051;-28
2022/05/13 00:28:29;;;;;;;20.83;3.75;;;;;;;12.53;100.00;101683.19;5058035;28;20041;-29
2022/05/13 00:30:59;;;;;;;28.92;4.50;;;;;;;12.54;100.00;101671.69;5064526;28;20059;-28
2022/05/13 00:33:27;;;;;;;27.00;4.22;;;;;;;12.52;100.00;101682.34;5058590;28;20500;-33
2022/05/13 00:35:55;;;;;;;26.48;4.03;;;;;;;12.54;100.00;101673.66;5058307;28;20059;-28
2022/05/13 00:38:23;;;;;;;18.85;3.45;;;;;;;12.57;100.00;101679.53;5059305;28;20052;-29
2022/05/13 00:40:50;;;;;;;15.63;2.85;;;;;;;12.57;100.00;101673.91;5060056;28;20095;-29
2022/05/13 00:43:45;;;;;;;16.23;3.13;;;;;;;12.59;100.00;101671.63;5058211;28;20048;-29
2022/05/13 00:46:14;;;;;;;22.48;4.55;;;;;;;12.57;100.00;101656.28;5061679;28;20453;-30
2022/05/13 00:48:42;;;;;;;19.63;3.70;;;;;;;12.59;100.00;101660.44;5063568;28;20135;-29
2022/05/13 00:51:12;;;;;;;19.40;3.20;;;;;;;12.62;100.00;101664.63;5063026;28;20064;-29
2022/05/13 00:53:40;;;;;;;24.00;3.78;;;;;;;12.61;100.00;101660.13;5064761;28;20041;-29
2022/05/13 00:56:08;;;;;;;27.58;3.83;;;;;;;12.59;100.00;101654.84;5054734;28;20056;-29
2022/05/13 00:58:39;;;;;;;23.85;3.83;;;;;;;12.61;100.00;101660.97;5064334;28;20049;-29
2022/05/13 01:01:08;;;;;;;21.40;4.50;;;;;;;12.61;100.00;101658.19;5049878;28;20056;-29
2022/05/13 01:03:38;;;;;;;20.02;3.75;;;;;;;12.62;100.00;101659.00;5063479;28;20565;-29
2022/05/13 01:06:12;;;;;;;13.48;2.90;;;;;;;12.64;100.00;101667.97;5063786;28;20045;-30
2022/05/13 01:08:40;;;;;;;18.38;3.58;;;;;;;12.63;100.00;101657.88;5068509;28;20052;-29
2022/05/13 01:11:12;;;;;;;16.58;3.50;;;;;;;12.64;100.00;101660.41;5064037;28;20053;-29
2022/05/13 01:13:46;;;;;;;18.17;3.30;;;;;;;12.64;100.00;101659.56;5068701;28;20046;-29
2022/05/13 01:16:15;;;;;;;16.60;3.55;;;;;;;12.64;100.00;101652.00;5065055;28;20053;-29
2022/05/13 01:18:43;;;;;;;20.35;3.60;;;;;;;12.65;100.00;101648.06;5067481;28;20040;-29
2022/05/13 01:21:14;;;;;;;17.17;3.50;;;;;;;12.65;100.00;101650.88;5064865;28;20494;-29
2022/05/13 01:23:45;;;;;;;17.73;3.30;;;;;;;12.63;100.00;101638.28;5068174;28;20131;-28
2022/05/13 01:26:15;;;;;;;16.85;2.85;;;;;;;12.65;100.00;101648.06;5065177;28;20056;-30
2022/05/13 01:28:47;;;;;;;14.82;3.42;;;;;;;12.66;100.00;101646.09;5070487;28;20048;-32
2022/05/13 01:31:23;;;;;;;16.52;3.00;;;;;;;12.67;100.00;101640.22;5064657;28;20122;-35
2022/05/13 01:33:51;;;;;;;17.45;2.97;;;;;;;12.64;100.00;101640.78;5051946;28;20056;-33
2022/05/13 01:36:19;;;;;;;17.27;3.13;;;;;;;12.68;100.00;101629.84;5064057;28;20045;-33
2022/05/13 01:38:49;;;;;;;14.77;2.65;;;;;;;12.70;100.00;101627.59;5061676;28;20123;-32
2022/05/13 01:41:18;;;;;;;14.30;2.60;;;;;;;12.68;100.00;101636.28;5051512;28;20060;-28
2022/05/13 01:43:47;;;;;;;15.23;3.05;;;;;;;12.69;100.00;101643.56;5062329;28;20044;-32
2022/05/13 01:46:17;;;;;;;13.88;2.60;;;;;;;12.66;100.00;101643.31;5062557;28;20401;-32
2022/05/13 01:48:45;;;;;;;16.25;2.85;;;;;;;12.67;100.00;101623.41;5061731;28;20055;-29
2022/05/13 01:51:13;;;;;;;16.98;2.72;;;;;;;12.68;100.00;101630.69;5062891;28;20041;-29
2022/05/13 01:53:41;;;;;;;15.20;2.80;;;;;;;12.68;100.00;101625.09;5066729;28;20053;-28
2022/05/13 01:56:11;;;;;;;15.88;2.70;;;;;;;12.70;100.00;101631.22;5062331;28;20049;-29
2022/05/13 01:58:38;;;;;;;12.95;2.63;;;;;;;12.71;100.00;101630.09;5068578;28;20052;-34
2022/05/13 02:01:08;;;;;;;15.73;2.50;;;;;;;12.70;100.00;101614.44;5060975;28;20497;-28
2022/05/13 02:03:45;;;;;;;10.02;1.83;;;;;;;12.70;100.00;101616.38;5066347;28;20163;-29
2022/05/13 02:06:18;;;;;;;11.57;2.20;;;;;;;12.68;100.00;101619.47;5064610;28;20094;-28
2022/05/13 02:08:46;;;;;;;13.80;2.70;;;;;;;12.67;100.00;101612.22;5066305;28;20052;-28
2022/05/13 02:11:16;;;;;;;11.45;2.40;;;;;;;12.67;100.00;101606.63;5067300;28;20049;-28
2022/05/13 02:13:45;;;;;;;11.82;2.33;;;;;;;12.66;100.00;101606.91;5057702;28;20051;-31
2022/05/13 02:16:13;;;;;;;10.60;2.10;;;;;;;12.64;100.00;101603.56;5066936;28;20053;-29
2022/05/13 02:18:41;;;;;;;9.10;2.38;;;;;;;12.61;100.00;101606.94;5063375;28;20485;-28
2022/05/13 02:21:09;;;;;;;10.60;2.10;;;;;;;12.59;100.00;101601.63;5066363;28;20071;-28
2022/05/13 02:23:38;;;;;;;8.63;2.10;;;;;;;12.61;100.00;101602.19;5063735;28;20440;-29
2022/05/13 02:26:08;;;;;;;7.80;2.08;;;;;;;12.65;100.00;101600.47;5066940;28;20043;-29
2022/05/13 02:28:39;;;;;;;12.38;2.38;;;;;;;12.64;100.00;101611.97;5066442;28;20049;-28
2022/05/13 02:31:07;;;;;;;8.45;2.15;;;;;;;12.63;100.00;101621.50;5063666;28;20049;-27
2022/05/13 02:33:35;;;;;;;10.77;2.40;;;;;;;12.62;100.00;101615.06;5063525;28;20099;-28
2022/05/13 02:36:04;;;;;;;9.48;1.77;;;;;;;12.58;100.00;101613.16;5066114;28;20068;-28
2022/05/13 02:38:33;;;;;;;11.88;2.20;;;;;;;12.58;100.00;101625.19;5063594;28;20045;-28
2022/05/13 02:41:13;;;;;;;9.40;1.80;;;;;;;12.58;100.00;101629.97;5049996;28;20048;-28
2022/05/13 02:43:45;;;;;;;9.00;2.17;;;;;;;12.53;100.00;101628.03;5064066;28;20500;-29
2022/05/13 02:46:15;;;;;;;8.90;1.80;;;;;;;12.52;100.00;101634.75;5050709;28;20040;-28
2022/05/13 02:48:43;;;;;;;11.90;1.92;;;;;;;12.53;100.00;101635.59;5061923;28;20303;-28
2022/05/13 02:51:11;;;;;;;7.13;1.67;;;;;;;12.53;100.00;101628.03;5057951;28;20045;-30
2022/05/13 02:53:39;;;;;;;10.93;2.22;;;;;;;12.56;100.00;101627.44;5066413;28;20041;-30
2022/05/13 02:56:07;;;;;;;9.77;2.20;;;;;;;12.57;100.00;101631.91;5065701;28;20178;-29
2022/05/13 02:58:35;;;;;;;10.00;2.47;;;;;;;12.56;100.00;101630.25;5064965;28;20037;-30
2022/05/13 03:01:06;;;;;;;13.90;2.10;;;;;;;12.57;100.00;101628.28;5065113;28;20053;-28
2022/05/13 03:03:34;;;;;;;7.55;1.92;;;;;;;12.56;100.00;101635.00;5062397;28;20456;-28
2022/05/13 03:06:01;;;;;;;12.77;2.13;;;;;;;12.54;100.00;101635.31;5063927;28;20040;-29
2022/05/13 03:08:29;;;;;;;8.70;1.88;;;;;;;12.56;100.00;101635.84;5058851;28;20127;-29
2022/05/13 03:10:57;;;;;;;9.98;1.95;;;;;;;12.57;100.00;101631.09;5064420;28;20102;-30
2022/05/13 03:13:25;;;;;;;10.75;2.15;;;;;;;12.54;100.00;101638.09;5064871;28;20044;-29
2022/05/13 03:15:52;;;;;;;8.25;2.10;;;;;;;12.55;100.00;101633.34;5063135;28;20044;-29
2022/05/13 03:18:21;;;;;;;11.43;2.10;;;;;;;12.52;100.00;101637.56;5064731;28;20037;-34
2022/05/13 03:20:49;;;;;;;10.27;2.05;;;;;;;12.50;100.00;101627.78;5062828;28;20048;-29
2022/05/13 03:23:17;;;;;;;12.10;1.98;;;;;;;12.48;100.00;101621.63;5065625;28;20052;-30
2022/05/13 03:25:45;;;;;;;10.98;2.15;;;;;;;12.43;100.00;101626.16;5060749;28;20508;-31
2022/05/13 03:28:12;;;;;;;10.27;2.10;;;;;;;12.39;100.00;101627.84;5060868;28;20910;-31
2022/05/13 03:30:40;;;;;;;8.75;1.73;;;;;;;12.36;100.00;101633.22;5055771;28;20496;-29
2022/05/13 03:33:08;;;;;;;8.40;1.75;;;;;;;12.37;100.00;101637.69;5064364;28;20417;-29
2022/05/13 03:35:39;;;;;;;8.65;1.55;;;;;;;12.37;100.00;101629.31;5061752;28;20041;-29
2022/05/13 03:38:06;;;;;;;12.65;2.67;;;;;;;12.33;100.00;101629.03;5064351;28;20045;-29
2022/05/13 03:40:35;;;;;;;8.82;1.63;;;;;;;12.36;100.00;101634.06;5062466;28;20041;-31
2022/05/13 03:43:04;;;;;;;12.43;1.55;;;;;;;12.36;100.00;101634.06;5048795;28;20067;-29
2022/05/13 03:45:34;;;;;;;9.98;2.15;;;;;;;12.36;100.00;101636.84;5060160;28;20175;-29
2022/05/13 03:48:02;;;;;;;10.35;1.80;;;;;;;12.33;100.00;101642.19;5059814;28;20044;-29
2022/05/13 03:50:30;;;;;;;12.80;2.08;;;;;;;12.32;100.00;101637.72;5059979;28;20048;-29
2022/05/13 03:52:59;;;;;;;11.25;1.85;;;;;;;12.33;100.00;101636.59;5060711;28;20139;-29
2022/05/13 03:55:27;;;;;;;10.15;1.70;;;;;;;12.31;100.00;101642.50;5058850;28;20326;-29
2022/05/13 03:57:58;;;;;;;7.85;1.55;;;;;;;12.30;100.00;101637.19;5058303;28;20048;-30
2022/05/13 04:00:27;;;;;;;11.65;2.15;;;;;;;12.28;100.00;101629.06;5060197;28;20048;-28
2022/05/13 04:02:54;;;;;;;8.63;1.70;;;;;;;12.28;100.00;101634.66;5046009;28;20045;-28
2022/05/13 04:10:55;;;;;;;6.65;1.40;;;;;;;12.26;100.00;101650.06;5060750;28;20047;-29
2022/05/13 04:16:08;;;;;;;10.02;1.65;;;;;;;12.23;100.00;101654.28;5060692;28;20483;-29
2022/05/13 04:18:38;;;;;;;6.63;1.17;;;;;;;12.27;100.00;101654.56;5064264;28;20037;-29
2022/05/13 04:21:10;;;;;;;11.10;1.65;;;;;;;12.24;100.00;101641.13;5058624;28;20077;-29
2022/05/13 04:23:40;;;;;;;;;;;;;;;12.18;100.00;101653.50;5060047;28;20052;-29
2022/05/13 04:26:12;;;;;;;6.90;1.45;;;;;;;12.18;100.00;101647.91;5056036;28;19925;-28
2022/05/13 04:28:40;;;;;;;9.77;2.08;;;;;;;12.23;100.00;101653.44;5059012;28;20040;-29
2022/05/13 04:31:08;;;;;;;8.40;1.77;;;;;;;12.26;100.00;101655.69;5064189;28;20044;-29
2022/05/13 04:33:36;;;;;;;7.78;1.75;;;;;;;12.26;100.00;101661.28;5063860;28;20059;-29
2022/05/13 04:36:04;;;;;;;9.50;2.05;;;;;;;12.27;100.00;101651.75;5064048;28;20111;-29
2022/05/13 04:38:33;;;;;;;9.60;1.80;;;;;;;12.28;100.00;101654.25;5055834;28;20053;-28
2022/05/13 04:42:49;;;;;;;9.20;1.73;;;;;;;12.28;100.00;101653.44;5063061;28;20060;-29
2022/05/13 04:43:50;;;;;;;10.25;1.85;;;;;;;12.29;100.00;101666.28;5057776;28;20048;-33
2022/05/13 04:46:18;;;;;;;11.73;2.10;;;;;;;12.29;100.00;101672.72;5064512;28;20394;-29
2022/05/13 04:48:47;;;;;;;6.72;1.30;;;;;;;12.30;100.00;101665.16;5060620;28;20091;-29
2022/05/13 04:51:17;;;;;;;11.35;2.08;;;;;;;12.29;100.00;101669.09;5064364;28;20060;-28
2022/05/13 04:53:46;;;;;;;10.70;1.60;;;;;;;12.32;100.00;101668.50;5061165;28;20048;-31
2022/05/13 04:56:16;;;;;;;8.20;1.60;;;;;;;12.30;100.00;101687.56;5063438;28;20048;-28
2022/05/13 04:58:44;;;;;;;6.90;1.73;;;;;;;12.28;100.00;101685.03;5061078;28;20056;-29
2022/05/13 05:01:13;;;;;;;9.35;1.92;;;;;;;12.31;100.00;101687.28;5064275;28;20067;-29
2022/05/13 05:03:42;;;;;;;10.05;1.42;;;;;;;12.31;100.00;101680.84;5060334;28;20414;-29
2022/05/13 05:06:11;;;;;;;8.43;1.73;;;;;;;12.34;100.00;101685.84;5064248;28;20068;-29
2022/05/13 05:08:40;;;;;;;7.53;1.50;;;;;;;12.32;100.00;101690.91;5060745;28;20071;-29
2022/05/13 05:11:09;;;;;;;11.95;2.25;;;;;;;12.29;100.00;101699.88;5063230;28;20498;-30
2022/05/13 05:13:41;;;;;;;6.18;1.38;;;;;;;12.32;100.00;101704.91;5062123;28;20076;-31
2022/05/13 05:16:09;;;;;;;8.20;1.80;;;;;;;12.34;100.00;101708.25;5046906;28;20045;-29
2022/05/13 05:18:39;;;;;;;8.18;1.60;;;;;;;12.35;100.00;101709.91;5059523;28;20143;-32
2022/05/13 05:21:08;;;;;;;7.93;2.08;;;;;;;12.34;100.00;101711.88;5058544;28;20480;-32
2022/05/13 05:23:39;;;;;;;8.88;2.00;;;;;;;12.33;100.00;101717.75;5058257;28;20047;-35
2022/05/13 05:26:08;;;;;;;9.38;1.55;;;;;;;12.28;100.00;101721.44;5060868;28;20073;-31
2022/05/13 05:28:37;;;;;;;10.02;1.60;;;;;;;12.32;100.00;101722.53;5063310;28;20457;-30
2022/05/13 05:31:08;;;;;;;5.53;1.35;;;;;;;12.40;100.00;101718.25;5056716;28;20515;-35
2022/05/13 05:33:36;;;;;;;9.60;1.77;;;;;;;12.47;100.00;101727.19;5059198;28;20053;-31
2022/05/13 05:36:04;;;;;;;14.00;1.70;;;;;;;12.51;100.00;101722.69;5063989;28;20058;-31
2022/05/13 05:38:33;;;;;;;8.50;1.65;;;;;;;12.57;100.00;101726.28;5063039;28;20072;-30
2022/05/13 05:41:02;;;;;;;9.90;1.80;;;;;;;12.62;100.00;101720.63;5059037;28;20052;-30
2022/05/13 05:43:30;;;;;;;8.50;1.33;;;;;;;12.65;100.00;101720.88;5062835;28;20048;-29
2022/05/13 05:45:59;;;;;;;8.35;1.40;;;;;;;12.68;100.00;101731.50;5060785;28;20143;-31
2022/05/13 05:48:29;;;;;;;11.45;1.83;;;;;;;12.73;100.00;101728.66;5060776;28;20398;-30
2022/05/13 05:50:59;;;;;;;9.13;2.00;;;;;;;12.77;100.00;101731.72;5054560;28;20103;-29
2022/05/13 05:59:02;;;;;;;10.68;1.50;;;;;;;12.86;100.00;101729.94;5064022;28;20048;-30
2022/05/13 06:01:30;;;;;;;8.40;1.63;;;;;;;12.84;100.00;101725.75;5065163;28;20139;-28
2022/05/13 06:03:59;;;;;;;8.63;1.73;;;;;;;12.82;100.00;101728.84;5066072;28;20524;-29
2022/05/13 06:06:27;;;;;;;5.70;1.25;;;;;;;12.82;100.00;101734.44;5056569;28;20144;-30
2022/05/13 06:08:56;;;;;;;8.23;1.70;;;;;;;12.83;100.00;101735.28;5066097;28;20123;-30
2022/05/13 06:11:24;;;;;;;7.28;1.40;;;;;;;12.84;100.00;101735.00;5073404;28;20060;-30
2022/05/13 06:13:53;;;;;;;10.70;1.80;;;;;;;12.89;100.00;101737.78;5072902;28;20052;-29
2022/05/13 06:16:22;;;;;;;11.23;1.75;;;;;;;12.96;100.00;101741.06;5062615;28;20086;-29
2022/05/13 06:18:50;;;;;;;7.88;1.60;;;;;;;13.03;100.00;101744.34;5066038;28;20048;-29
2022/05/13 06:21:19;;;;;;;7.15;1.50;;;;;;;13.11;100.00;101745.69;5069215;28;20056;-29
2022/05/13 06:23:47;;;;;;;9.70;2.10;;;;;;;13.24;100.00;101747.00;5060082;28;20494;-31
2022/05/13 06:26:15;;;;;;;9.35;1.63;;;;;;;13.40;100.00;101746.53;5062873;28;20052;-29
2022/05/13 06:28:42;;;;;;;11.32;2.08;;;;;;;13.61;100.00;101760.34;5061785;28;20575;-30
2022/05/13 06:31:10;;;;;;;6.47;1.42;;;;;;;13.84;100.00;101753.06;5071541;28;20084;-31
2022/05/13 06:33:38;;;;;;;11.48;1.70;;;;;;;14.18;100.00;101750.09;5059270;28;20485;-29
2022/05/13 06:36:07;;;;;;;7.07;1.45;;;;;;;14.49;100.00;101751.34;5060432;28;20045;-29
2022/05/13 06:38:36;;;;;;;7.70;1.80;;;;;;;14.82;100.00;101763.47;5047568;28;20403;-29
2022/05/13 06:41:04;;;;;;;5.65;1.30;;;;;;;15.21;99.79;101760.28;5063413;28;20041;-30
2022/05/13 06:43:32;;;;;;;9.07;1.77;;;;;;;15.60;98.74;101756.19;5065560;28;20037;-28
2022/05/13 06:46:00;;;;;;;9.23;1.73;;;;;;;15.92;95.39;101772.19;5060316;28;20056;-30
2022/05/13 06:48:28;;;;;;;7.55;1.52;;;;;;;16.18;94.07;101774.16;5062382;28;20087;-31
2022/05/13 06:50:55;;;;;;;8.55;1.77;;;;;;;16.41;91.05;101775.03;5064876;28;20045;-30
2022/05/13 06:53:23;;;;;;;9.15;1.42;;;;;;;16.67;89.61;101772.50;5065610;28;20044;-31
2022/05/13 06:55:52;;;;;;;10.23;1.80;;;;;;;17.02;89.52;101784.03;5060494;28;20053;-29
2022/05/13 06:58:20;;;;;;;7.78;1.58;;;;;;;17.44;86.91;101780.69;5062454;28;20491;-29
2022/05/13 07:00:48;;;;;;;9.38;1.80;;;;;;;17.76;84.38;101778.72;5060660;28;20051;-29
2022/05/13 07:03:18;;;;;;;6.35;1.70;;;;;;;17.96;81.65;101777.31;5062277;28;20441;-30
2022/05/13 07:05:46;;;;;;;6.28;1.45;;;;;;;18.15;81.04;101775.03;5060480;28;20435;-30
2022/05/13 07:08:14;;;;;;;6.68;1.48;;;;;;;18.29;79.38;101775.72;5064186;28;20049;-30
2022/05/13 07:10:43;;;;;;;8.73;1.95;;;;;;;18.28;78.18;101790.19;5059702;28;20056;-30
2022/05/13 07:13:15;;;;;;;7.82;1.25;;;;;;;18.54;77.58;101782.59;5062843;28;20041;-30
2022/05/13 07:15:43;;;;;;;6.53;1.55;;;;;;;18.87;76.71;101782.97;5058702;28;20043;-30
2022/05/13 07:18:11;;;;;;;6.15;1.40;;;;;;;19.15;75.42;101789.94;5063265;28;20442;-30
2022/05/13 07:20:39;;;;;;;4.82;1.20;;;;;;;19.33;72.67;101792.75;5070338;28;20056;-33
2022/05/13 07:23:07;;;;;;;8.65;1.92;;;;;;;19.25;72.51;101792.41;5055356;28;20135;-32
2022/05/13 07:25:35;;;;;;;7.28;1.33;;;;;;;19.10;72.15;101798.59;5060430;28;20048;-32
2022/05/13 07:28:04;;;;;;;6.88;1.52;;;;;;;19.44;73.30;101791.22;5062321;28;20056;-34
2022/05/13 07:30:33;;;;;;;6.20;1.40;;;;;;;20.02;72.08;101790.53;5070260;28;20556;-34
2022/05/13 07:33:01;;;;;;;7.30;1.55;;;;;;;20.40;69.25;101798.19;5048828;28;20540;-30
2022/05/13 07:35:28;;;;;;;6.00;1.40;;;;;;;20.53;67.25;101811.31;5060367;28;20098;-33
2022/05/13 07:37:56;;;;;;;6.78;1.60;;;;;;;20.60;66.78;101815.25;5060068;28;20059;-30
2022/05/13 07:43:09;;;;;;;10.48;1.73;;;;;;;20.36;65.73;101812.22;5062802;28;20072;-32
2022/05/13 07:45:39;;;;;;;5.40;1.33;;;;;;;20.36;65.80;101823.56;5065054;28;20051;-35
2022/05/13 07:48:07;;;;;;;6.53;1.63;;;;;;;20.56;66.32;101825.63;5060808;28;20049;-30
2022/05/13 07:50:35;;;;;;;7.03;1.73;;;;;;;20.61;64.96;101818.91;5064561;28;20040;-36
2022/05/13 07:53:04;;;;;;;7.28;1.42;;;;;;;20.47;63.93;101824.84;5064733;28;20425;-33
2022/05/13 07:55:32;;;;;;;7.25;1.70;;;;;;;20.09;65.23;101830.50;5057529;28;20052;-30
2022/05/13 07:57:59;;;;;;;6.88;1.40;;;;;;;19.79;65.85;101842.94;5057922;28;20467;-37
2022/05/13 08:00:29;;;;;;;6.13;1.15;;;;;;;19.57;66.30;101842.03;5059374;28;20114;-31
2022/05/13 08:03:01;;;;;;;6.13;1.40;;;;;;;19.39;66.83;101848.84;5059223;28;20510;-30
2022/05/13 08:05:32;;;;;;;4.82;1.17;;;;;;;19.35;68.36;101847.88;5056539;28;20069;-34
2022/05/13 08:08:03;;;;;;;5.45;1.10;;;;;;;19.47;68.76;101850.84;5057943;28;20149;-37
2022/05/13 08:10:31;;;;;;;7.67;1.70;;;;;;;19.45;68.11;101841.84;5060683;28;20072;-31
2022/05/13 08:12:59;;;;;;;5.78;1.23;;;;;;;19.29;68.57;101849.19;5058211;28;20680;-30
2022/05/13 08:15:27;;;;;;;6.38;1.30;;;;;;;19.18;69.30;101857.16;5060375;28;20091;-29
2022/05/13 08:17:55;;;;;;;5.80;1.33;;;;;;;18.85;69.52;101861.66;5059202;28;20048;-30
2022/05/13 08:20:24;;;;;;;6.78;1.50;;;;;;;18.66;71.41;101853.47;5061288;28;20059;-33
2022/05/13 08:22:52;;;;;;;8.15;1.80;;;;;;;18.59;71.37;101853.97;5059310;28;20120;-29
2022/05/13 08:25:20;;;;;;;7.03;1.60;;;;;;;18.49;72.27;101853.41;5061990;28;20048;-37
2022/05/13 08:27:48;;;;;;;8.45;1.90;;;;;;;18.43;72.74;101854.72;5058301;28;20489;-36
2022/05/13 08:30:16;;;;;;;5.30;1.33;;;;;;;18.39;72.98;101856.53;5066893;28;20043;-32
2022/05/13 08:32:44;;;;;;;7.13;1.30;;;;;;;18.50;73.18;101855.91;5059019;28;20056;-31
2022/05/13 08:35:14;;;;;;;6.65;1.45;;;;;;;18.63;72.45;101859.78;5059538;28;20394;-29
2022/05/13 08:37:55;;;;;;;7.00;1.50;;;;;;;18.88;72.39;101866.66;5047857;28;20074;-30
2022/05/13 08:40:33;;;;;;;6.35;1.45;;;;;;;19.14;71.38;101861.84;5059388;28;20044;-34
2022/05/13 08:43:10;;;;;;;5.82;1.23;;;;;;;19.22;70.43;101860.16;5058909;28;20470;-29
2022/05/13 08:45:40;;;;;;;6.65;1.48;;;;;;;19.17;69.41;101864.03;5060575;28;20140;-30
2022/05/13 08:48:09;;;;;;;5.53;1.52;;;;;;;19.14;69.53;101867.50;5057739;28;20440;-32
2022/05/13 08:50:41;;;;;;;8.23;1.60;;;;;;;18.97;70.17;101859.03;5047786;28;20049;-34
2022/05/13 08:53:23;;;;;;;9.88;1.63;;;;;;;19.15;70.64;101859.84;5058942;28;20128;-32
2022/05/13 08:55:51;;;;;;;;;;;;;;;18.98;67.32;101871.19;5048489;28;20044;-35
2022/05/13 08:58:24;;;;;;;7.75;1.65;;;;;;;18.96;70.98;101879.16;5058788;28;19928;-34
2022/05/13 09:00:55;;;;;;;10.93;2.22;;;;;;;19.13;70.67;101868.69;5058892;28;20032;-33
2022/05/13 09:03:31;;;;;;;8.98;1.65;;;;;;;19.03;68.85;101880.31;5058637;28;20078;-36
2022/05/13 09:06:03;;;;;;;7.45;1.70;;;;;;;18.72;70.36;101873.97;5059124;28;20405;-39
2022/05/13 09:08:42;;;;;;;6.82;1.60;;;;;;;18.64;71.56;101869.94;5061222;28;20493;-36
2022/05/13 09:11:16;;;;;;;8.52;1.70;;;;;;;18.62;70.77;101869.44;5063645;28;20052;-34
2022/05/13 09:13:57;;;;;;;7.57;1.40;;;;;;;18.57;71.62;101883.72;5061300;28;20049;-33
2022/05/13 09:16:42;;;;;;;7.32;1.52;;;;;;;18.56;71.47;101877.22;5063148;28;20052;-31
2022/05/13 09:19:16;;;;;;;9.60;1.80;;;;;;;18.60;71.40;101883.06;5064109;28;20049;-32
2022/05/13 09:21:45;;;;;;;9.55;1.90;;;;;;;18.85;71.38;101885.13;5049579;28;20147;-32
2022/05/13 09:24:14;;;;;;;9.00;1.77;;;;;;;19.05;69.82;101894.97;5057828;28;20041;-30
2022/05/13 09:26:43;;;;;;;7.43;1.50;;;;;;;19.04;69.90;101903.78;5060474;28;20434;-29
2022/05/13 09:29:13;;;;;;;8.63;2.17;;;;;;;19.17;69.56;101911.28;5062504;28;20048;-33
2022/05/13 09:31:43;;;;;;;6.50;1.70;;;;;;;19.13;69.96;101896.13;5066583;28;20076;-35
2022/05/13 09:34:36;;;;;;;8.70;2.25;;;;;;;19.25;67.15;101901.97;5061481;28;20052;-31
2022/05/13 09:37:12;;;;;;;8.30;1.70;;;;;;;19.46;69.08;101902.13;5066155;28;20049;-30
2022/05/13 09:39:44;;;;;;;7.35;1.95;;;;;;;19.52;67.44;101906.50;5067363;28;20041;-32
2022/05/13 09:42:26;;;;;;;10.02;2.00;;;;;;;19.43;67.50;101911.28;5067550;28;20049;-31
2022/05/13 09:45:09;;;;;;;;;;;;;;;19.34;66.54;101905.63;5065688;28;20107;-29
2022/05/13 09:47:37;;;;;;;7.72;1.60;;;;;;;19.57;68.73;101912.81;5053179;28;19924;-30
2022/05/13 09:50:29;;;;;;;8.07;1.52;;;;;;;19.89;65.97;101921.91;5056818;28;20268;-32
2022/05/13 09:53:03;;;;;;;7.00;1.50;;;;;;;20.06;67.34;101919.03;5055152;28;20041;-30
2022/05/13 09:55:38;;;;;;;8.73;1.67;;;;;;;20.47;65.34;101931.75;5050939;28;20055;-31
2022/05/13 09:58:18;;;;;;;11.98;1.90;;;;;;;20.58;64.62;101935.91;5062987;28;20056;-30
2022/05/13 10:00:49;;;;;;;7.07;1.73;;;;;;;20.47;64.10;101938.25;5051708;28;20033;-35
2022/05/13 10:03:21;;;;;;;10.00;1.95;;;;;;;20.30;64.20;101919.28;5063879;28;20404;-30
2022/05/13 10:05:54;;;;;;;11.93;2.70;;;;;;;20.47;64.59;101928.94;5049687;28;20040;-36
2022/05/13 10:08:27;;;;;;;9.43;1.90;;;;;;;20.39;63.45;101922.09;5063023;28;20053;-31
2022/05/13 10:13:59;;;;;;;8.05;1.80;;;;;;;20.44;62.49;101919.09;5057096;28;20052;-29
2022/05/13 10:16:34;;;;;;;6.53;1.77;;;;;;;20.28;64.73;101920.81;5060857;28;20073;-30
2022/05/13 10:19:10;;;;;;;12.30;2.63;;;;;;;20.19;63.84;101915.16;5061513;28;20053;-30
2022/05/13 10:21:44;;;;;;;11.05;2.40;;;;;;;20.26;64.48;101915.47;5060709;28;20128;-29
2022/05/13 10:24:28;;;;;;;7.50;1.90;;;;;;;19.92;64.31;101912.75;5064543;28;20055;-33
2022/05/13 10:26:58;;;;;;;7.50;1.73;;;;;;;19.66;65.26;101909.13;5059957;28;20048;-32
2022/05/13 10:29:30;;;;;;;9.20;2.27;;;;;;;19.73;65.77;101920.78;5062208;28;20490;-31
2022/05/13 10:31:58;;;;;;;9.15;1.92;;;;;;;19.84;65.85;101917.25;5066566;28;20051;-38
2022/05/13 10:34:31;;;;;;;11.35;1.77;;;;;;;19.99;64.56;101918.72;5062724;28;20049;-38
2022/05/13 10:37:04;;;;;;;8.60;2.25;;;;;;;19.90;64.78;101927.25;5066378;28;20042;-30
2022/05/13 10:39:41;;;;;;;5.57;1.67;;;;;;;19.89;65.68;101928.41;5062178;28;20049;-33
2022/05/13 10:42:16;;;;;;;20.58;2.63;;;;;;;20.25;65.62;101941.31;5050483;28;20055;-37
2022/05/13 10:44:51;;;;;;;9.50;2.20;;;;;;;20.35;64.03;101940.13;5059957;28;20048;-31
2022/05/13 10:47:23;;;;;;;12.18;2.50;;;;;;;20.14;63.68;101937.19;5071299;28;20061;-30
2022/05/13 10:49:51;;;;;;;7.78;1.90;;;;;;;20.33;64.85;101936.81;5061314;28;20171;-32
2022/05/13 10:52:32;;;;;;;10.25;2.10;;;;;;;20.42;63.17;101944.13;5064991;28;20051;-30
2022/05/13 10:55:03;;;;;;;;;;;;;;;20.38;61.93;101948.00;5054165;28;20058;-30
2022/05/13 10:57:41;;;;;;;7.97;1.58;;;;;;;20.34;63.94;101944.13;5049844;28;19921;-36
2022/05/13 11:00:15;;;;;;;8.73;2.00;;;;;;;20.51;65.46;101936.41;5062980;28;20048;-35
2022/05/13 11:03:01;;;;;;;7.05;1.75;;;;;;;20.79;62.51;101948.09;5048867;28;20056;-31
2022/05/13 11:05:40;;;;;;;6.85;1.85;;;;;;;20.71;63.47;101954.69;5063359;28;20502;-31
2022/05/13 11:08:16;;;;;;;9.00;1.90;;;;;;;20.75;62.28;101952.00;5059943;28;20036;-34
2022/05/13 11:10:55;;;;;;;6.03;1.83;;;;;;;20.57;62.67;101949.25;5063559;28;20429;-29
2022/05/13 11:13:37;;;;;;;8.15;1.63;;;;;;;20.57;62.21;101946.41;5060289;28;20048;-29
2022/05/13 11:16:14;;;;;;;8.20;2.20;;;;;;;20.61;63.26;101946.53;5062868;28;20055;-29
2022/05/13 11:18:52;;;;;;;6.78;1.58;;;;;;;20.53;62.57;101947.41;5060437;28;20079;-30
2022/05/13 11:21:30;;;;;;;9.98;2.50;;;;;;;20.14;61.78;101963.53;5060444;28;20102;-29
2022/05/13 11:27:00;;;;;;;10.60;2.20;;;;;;;20.15;63.30;101964.38;5063324;28;20045;-30
2022/05/13 11:29:38;;;;;;;8.40;1.65;;;;;;;20.09;64.72;101962.88;5066918;28;20048;-29
2022/05/13 11:32:17;;;;;;;8.63;1.70;;;;;;;20.23;64.91;101958.66;5064259;28;20061;-30
2022/05/13 11:35:03;;;;;;;11.02;2.25;;;;;;;20.13;63.97;101952.53;5053824;28;20055;-29
2022/05/13 11:37:38;;;;;;;9.93;2.03;;;;;;;19.61;65.57;101959.09;5061098;28;20079;-35
2022/05/13 11:40:20;;;;;;;9.40;2.13;;;;;;;19.39;66.14;101979.03;5062971;28;20375;-30
2022/05/13 11:46:31;;;;;;;7.50;2.00;;;;;;;19.33;67.52;101963.41;5063855;28;20049;-33
2022/05/13 11:49:07;;;;;;;9.13;2.10;;;;;;;19.32;68.59;101967.41;5048287;28;20084;-33
2022/05/13 11:51:37;;;;;;;9.73;2.42;;;;;;;19.03;69.19;101958.69;5063358;28;20068;-35
2022/05/13 11:54:17;;;;;;;11.05;2.22;;;;;;;19.09;69.44;101968.69;5064027;28;20510;-36
2022/05/13 11:56:46;;;;;;;10.20;2.50;;;;;;;18.96;69.27;101955.53;5063838;28;20053;-36
2022/05/13 11:59:47;;;;;;;11.43;2.55;;;;;;;18.66;69.16;101969.41;5063475;28;20095;-29
2022/05/13 12:02:49;;;;;;;12.65;2.10;;;;;;;18.42;72.71;101968.94;5052006;28;20056;-29